sensor_id;sensor_type;location;lat;lon;timestamp;P1;durP1;ratioP1;P2;durP2;ratioP2
18172;SDS011;9211;48.818;9.312;2023-02-18T00:01:25;1.20;;;0.70;;
18172;SDS011;9211;48.818;9.312;2023-02-18T00:03:54;2.30;;;0.70;;
18172;SDS011;9211;48.818;9.312;2023-02-18T00:06:23;1.23;;;0.75;;
18172;SDS011;9211;48.818;9.312;2023-02-18T00:08:52;1.80;;;0.77;;
18172;SDS011;9211;48.818;9.312;2023-02-18T00:11:21;2.90;;;0.70;;
18172;SDS011;9211;48.818;9.312;2023-02-18T00:13:49;2.00;;;0.80;;
18172;SDS011;9211;48.818;9.312;2023-02-18T00:16:17;1.05;;;0.60;;
18172;SDS011;9211;48.818;9.312;2023-02-18T00:18:44;1.70;;;0.80;;
18172;SDS011;9211;48.818;9.312;2023-02-18T00:21:12;0.93;;;0.70;;
18172;SDS011;9211;48.818;9.312;2023-02-18T00:23:39;1.00;;;0.70;;
18172;SDS011;9211;48.818;9.312;2023-02-18T00:26:07;1.80;;;0.70;;
18172;SDS011;9211;48.818;9.312;2023-02-18T00:28:38;0.95;;;0.60;;
18172;SDS011;9211;48.818;9.312;2023-02-18T00:31:05;1.10;;;0.70;;
18172;SDS011;9211;48.818;9.312;2023-02-18T00:33:34;0.85;;;0.60;;
18172;SDS011;9211;48.818;9.312;2023-02-18T00:36:01;1.80;;;0.73;;
18172;SDS011;9211;48.818;9.312;2023-02-18T00:38:32;1.27;;;0.77;;
18172;SDS011;9211;48.818;9.312;2023-02-18T00:41:01;0.98;;;0.63;;
18172;SDS011;9211;48.818;9.312;2023-02-18T00:43:28;0.88;;;0.60;;
18172;SDS011;9211;48.818;9.312;2023-02-18T00:45:55;1.00;;;0.70;;
18172;SDS011;9211;48.818;9.312;2023-02-18T00:48:22;1.27;;;0.70;;
18172;SDS011;9211;48.818;9.312;2023-02-18T00:50:50;1.13;;;0.70;;
18172;SDS011;9211;48.818;9.312;2023-02-18T00:53:17;1.55;;;0.70;;
18172;SDS011;9211;48.818;9.312;2023-02-18T00:55:46;0.85;;;0.60;;
18172;SDS011;9211;48.818;9.312;2023-02-18T00:58:14;1.80;;;0.80;;
18172;SDS011;9211;48.818;9.312;2023-02-18T01:00:41;1.58;;;0.73;;
18172;SDS011;9211;48.818;9.312;2023-02-18T01:03:09;1.45;;;0.70;;
18172;SDS011;9211;48.818;9.312;2023-02-18T01:05:36;1.80;;;0.80;;
18172;SDS011;9211;48.818;9.312;2023-02-18T01:08:06;1.52;;;0.70;;
18172;SDS011;9211;48.818;9.312;2023-02-18T01:10:38;0.95;;;0.75;;
18172;SDS011;9211;48.818;9.312;2023-02-18T01:13:07;1.15;;;0.70;;
18172;SDS011;9211;48.818;9.312;2023-02-18T01:15:34;1.73;;;0.70;;
18172;SDS011;9211;48.818;9.312;2023-02-18T01:18:01;1.30;;;0.70;;
18172;SDS011;9211;48.818;9.312;2023-02-18T01:20:31;0.70;;;0.60;;
18172;SDS011;9211;48.818;9.312;2023-02-18T01:22:59;0.90;;;0.63;;
18172;SDS011;9211;48.818;9.312;2023-02-18T01:25:27;1.05;;;0.60;;
18172;SDS011;9211;48.818;9.312;2023-02-18T01:27:54;1.90;;;0.70;;
18172;SDS011;9211;48.818;9.312;2023-02-18T01:30:21;1.13;;;0.60;;
18172;SDS011;9211;48.818;9.312;2023-02-18T01:32:49;1.60;;;0.70;;
18172;SDS011;9211;48.818;9.312;2023-02-18T01:35:16;1.05;;;0.60;;
18172;SDS011;9211;48.818;9.312;2023-02-18T01:37:44;2.40;;;0.80;;
18172;SDS011;9211;48.818;9.312;2023-02-18T01:40:13;2.70;;;0.70;;
18172;SDS011;9211;48.818;9.312;2023-02-18T01:42:43;1.23;;;0.80;;
18172;SDS011;9211;48.818;9.312;2023-02-18T01:48:07;1.55;;;0.90;;
18172;SDS011;9211;48.818;9.312;2023-02-18T01:50:37;1.75;;;0.80;;
18172;SDS011;9211;48.818;9.312;2023-02-18T01:53:07;1.80;;;0.73;;
18172;SDS011;9211;48.818;9.312;2023-02-18T01:55:34;1.60;;;0.90;;
18172;SDS011;9211;48.818;9.312;2023-02-18T01:58:05;1.00;;;0.70;;
18172;SDS011;9211;48.818;9.312;2023-02-18T02:00:33;1.40;;;0.80;;
18172;SDS011;9211;48.818;9.312;2023-02-18T02:03:01;1.52;;;0.70;;
18172;SDS011;9211;48.818;9.312;2023-02-18T02:05:29;1.10;;;0.90;;
18172;SDS011;9211;48.818;9.312;2023-02-18T02:07:57;1.17;;;0.88;;
18172;SDS011;9211;48.818;9.312;2023-02-18T02:10:29;1.40;;;0.80;;
18172;SDS011;9211;48.818;9.312;2023-02-18T02:13:10;0.90;;;0.70;;
18172;SDS011;9211;48.818;9.312;2023-02-18T02:15:46;1.58;;;0.80;;
18172;SDS011;9211;48.818;9.312;2023-02-18T02:18:24;1.30;;;0.80;;
18172;SDS011;9211;48.818;9.312;2023-02-18T02:21:14;2.30;;;0.77;;
18172;SDS011;9211;48.818;9.312;2023-02-18T02:27:11;1.80;;;0.85;;
18172;SDS011;9211;48.818;9.312;2023-02-18T02:32:58;1.80;;;1.00;;
18172;SDS011;9211;48.818;9.312;2023-02-18T02:35:49;2.20;;;1.00;;
18172;SDS011;9211;48.818;9.312;2023-02-18T02:38:23;1.20;;;0.98;;
18172;SDS011;9211;48.818;9.312;2023-02-18T02:41:01;2.70;;;1.00;;
18172;SDS011;9211;48.818;9.312;2023-02-18T02:43:40;1.40;;;0.98;;
18172;SDS011;9211;48.818;9.312;2023-02-18T02:46:17;1.67;;;0.90;;
18172;SDS011;9211;48.818;9.312;2023-02-18T02:48:50;1.40;;;1.00;;
18172;SDS011;9211;48.818;9.312;2023-02-18T02:51:26;1.50;;;0.90;;
18172;SDS011;9211;48.818;9.312;2023-02-18T02:54:07;1.60;;;1.10;;
18172;SDS011;9211;48.818;9.312;2023-02-18T02:56:36;1.80;;;1.10;;
18172;SDS011;9211;48.818;9.312;2023-02-18T02:59:05;1.70;;;1.00;;
18172;SDS011;9211;48.818;9.312;2023-02-18T03:01:41;1.50;;;0.93;;
18172;SDS011;9211;48.818;9.312;2023-02-18T03:04:35;2.17;;;1.00;;
18172;SDS011;9211;48.818;9.312;2023-02-18T03:10:31;1.52;;;1.00;;
18172;SDS011;9211;48.818;9.312;2023-02-18T03:13:11;1.87;;;0.90;;
18172;SDS011;9211;48.818;9.312;2023-02-18T03:15:48;1.48;;;1.10;;
18172;SDS011;9211;48.818;9.312;2023-02-18T03:18:22;1.63;;;0.90;;
18172;SDS011;9211;48.818;9.312;2023-02-18T03:20:55;1.40;;;1.10;;
18172;SDS011;9211;48.818;9.312;2023-02-18T03:23:27;2.38;;;1.00;;
18172;SDS011;9211;48.818;9.312;2023-02-18T03:25:59;2.22;;;1.27;;
18172;SDS011;9211;48.818;9.312;2023-02-18T03:28:29;2.00;;;1.10;;
18172;SDS011;9211;48.818;9.312;2023-02-18T03:30:58;2.55;;;1.23;;
18172;SDS011;9211;48.818;9.312;2023-02-18T03:33:30;1.37;;;1.10;;
18172;SDS011;9211;48.818;9.312;2023-02-18T03:36:02;1.53;;;1.10;;
18172;SDS011;9211;48.818;9.312;2023-02-18T03:38:30;2.78;;;1.10;;
18172;SDS011;9211;48.818;9.312;2023-02-18T03:41:03;1.30;;;1.00;;
18172;SDS011;9211;48.818;9.312;2023-02-18T03:43:31;1.40;;;1.00;;
18172;SDS011;9211;48.818;9.312;2023-02-18T03:45:58;2.38;;;1.10;;
18172;SDS011;9211;48.818;9.312;2023-02-18T03:48:26;1.83;;;1.00;;
18172;SDS011;9211;48.818;9.312;2023-02-18T03:50:53;1.50;;;1.00;;
18172;SDS011;9211;48.818;9.312;2023-02-18T03:53:20;2.35;;;1.00;;
18172;SDS011;9211;48.818;9.312;2023-02-18T03:55:47;2.25;;;1.00;;
18172;SDS011;9211;48.818;9.312;2023-02-18T03:58:15;2.15;;;0.95;;
18172;SDS011;9211;48.818;9.312;2023-02-18T04:00:42;1.20;;;0.93;;
18172;SDS011;9211;48.818;9.312;2023-02-18T04:03:09;1.50;;;0.88;;
18172;SDS011;9211;48.818;9.312;2023-02-18T04:05:36;1.73;;;1.08;;
18172;SDS011;9211;48.818;9.312;2023-02-18T04:08:03;1.50;;;1.00;;
18172;SDS011;9211;48.818;9.312;2023-02-18T04:10:30;1.48;;;0.90;;
18172;SDS011;9211;48.818;9.312;2023-02-18T04:12:57;1.42;;;1.00;;
18172;SDS011;9211;48.818;9.312;2023-02-18T04:15:26;1.23;;;0.98;;
18172;SDS011;9211;48.818;9.312;2023-02-18T04:17:53;1.20;;;0.90;;
18172;SDS011;9211;48.818;9.312;2023-02-18T04:20:20;1.45;;;1.00;;
18172;SDS011;9211;48.818;9.312;2023-02-18T04:22:47;1.60;;;1.02;;
18172;SDS011;9211;48.818;9.312;2023-02-18T04:25:14;1.90;;;1.00;;
18172;SDS011;9211;48.818;9.312;2023-02-18T04:27:41;1.40;;;1.00;;
18172;SDS011;9211;48.818;9.312;2023-02-18T04:30:08;2.05;;;1.00;;
18172;SDS011;9211;48.818;9.312;2023-02-18T04:32:38;1.77;;;0.95;;
18172;SDS011;9211;48.818;9.312;2023-02-18T04:35:05;2.22;;;1.02;;
18172;SDS011;9211;48.818;9.312;2023-02-18T04:37:32;1.77;;;1.10;;
18172;SDS011;9211;48.818;9.312;2023-02-18T04:39:59;2.08;;;1.27;;
18172;SDS011;9211;48.818;9.312;2023-02-18T04:42:26;2.10;;;1.10;;
18172;SDS011;9211;48.818;9.312;2023-02-18T04:44:53;1.83;;;1.10;;
18172;SDS011;9211;48.818;9.312;2023-02-18T04:47:20;1.45;;;1.10;;
18172;SDS011;9211;48.818;9.312;2023-02-18T04:49:48;1.83;;;1.10;;
18172;SDS011;9211;48.818;9.312;2023-02-18T04:52:16;2.20;;;1.40;;
18172;SDS011;9211;48.818;9.312;2023-02-18T04:54:43;2.58;;;1.20;;
18172;SDS011;9211;48.818;9.312;2023-02-18T04:57:10;1.90;;;1.10;;
18172;SDS011;9211;48.818;9.312;2023-02-18T04:59:37;1.98;;;1.27;;
18172;SDS011;9211;48.818;9.312;2023-02-18T05:02:04;3.55;;;1.30;;
18172;SDS011;9211;48.818;9.312;2023-02-18T05:04:31;2.35;;;1.10;;
18172;SDS011;9211;48.818;9.312;2023-02-18T05:07:00;2.55;;;1.20;;
18172;SDS011;9211;48.818;9.312;2023-02-18T05:09:26;2.20;;;1.20;;
18172;SDS011;9211;48.818;9.312;2023-02-18T05:11:54;2.40;;;1.23;;
18172;SDS011;9211;48.818;9.312;2023-02-18T05:14:21;1.38;;;1.17;;
18172;SDS011;9211;48.818;9.312;2023-02-18T05:16:47;2.15;;;1.08;;
18172;SDS011;9211;48.818;9.312;2023-02-18T05:19:15;1.73;;;1.02;;
18172;SDS011;9211;48.818;9.312;2023-02-18T05:21:42;1.63;;;0.88;;
18172;SDS011;9211;48.818;9.312;2023-02-18T05:24:11;1.60;;;1.02;;
18172;SDS011;9211;48.818;9.312;2023-02-18T05:26:37;1.47;;;0.97;;
18172;SDS011;9211;48.818;9.312;2023-02-18T05:29:04;1.00;;;0.90;;
18172;SDS011;9211;48.818;9.312;2023-02-18T05:31:32;2.10;;;1.10;;
18172;SDS011;9211;48.818;9.312;2023-02-18T05:33:59;1.20;;;0.98;;
18172;SDS011;9211;48.818;9.312;2023-02-18T05:36:25;2.63;;;1.00;;
18172;SDS011;9211;48.818;9.312;2023-02-18T05:38:52;1.05;;;0.88;;
18172;SDS011;9211;48.818;9.312;2023-02-18T05:41:21;1.30;;;0.90;;
18172;SDS011;9211;48.818;9.312;2023-02-18T05:43:48;1.80;;;0.90;;
18172;SDS011;9211;48.818;9.312;2023-02-18T05:46:32;1.40;;;0.90;;
18172;SDS011;9211;48.818;9.312;2023-02-18T05:48:59;1.42;;;0.98;;
18172;SDS011;9211;48.818;9.312;2023-02-18T05:51:26;2.20;;;1.00;;
18172;SDS011;9211;48.818;9.312;2023-02-18T05:53:53;1.80;;;0.90;;
18172;SDS011;9211;48.818;9.312;2023-02-18T05:56:22;1.25;;;0.80;;
18172;SDS011;9211;48.818;9.312;2023-02-18T05:58:49;3.67;;;1.10;;
18172;SDS011;9211;48.818;9.312;2023-02-18T06:01:16;2.28;;;0.88;;
18172;SDS011;9211;48.818;9.312;2023-02-18T06:03:43;2.42;;;1.02;;
18172;SDS011;9211;48.818;9.312;2023-02-18T06:06:10;1.77;;;0.90;;
18172;SDS011;9211;48.818;9.312;2023-02-18T06:08:36;1.38;;;0.95;;
18172;SDS011;9211;48.818;9.312;2023-02-18T06:11:03;1.98;;;0.93;;
18172;SDS011;9211;48.818;9.312;2023-02-18T06:13:32;1.50;;;0.90;;
18172;SDS011;9211;48.818;9.312;2023-02-18T06:15:59;2.03;;;1.10;;
18172;SDS011;9211;48.818;9.312;2023-02-18T06:18:26;1.50;;;1.10;;
18172;SDS011;9211;48.818;9.312;2023-02-18T06:20:53;1.50;;;1.10;;
18172;SDS011;9211;48.818;9.312;2023-02-18T06:23:20;1.70;;;1.00;;
18172;SDS011;9211;48.818;9.312;2023-02-18T06:25:47;1.20;;;0.87;;
18172;SDS011;9211;48.818;9.312;2023-02-18T06:28:14;1.85;;;1.02;;
18172;SDS011;9211;48.818;9.312;2023-02-18T06:30:43;2.30;;;1.08;;
18172;SDS011;9211;48.818;9.312;2023-02-18T06:33:10;2.17;;;1.07;;
18172;SDS011;9211;48.818;9.312;2023-02-18T06:35:37;1.90;;;0.90;;
18172;SDS011;9211;48.818;9.312;2023-02-18T06:38:04;1.70;;;1.10;;
18172;SDS011;9211;48.818;9.312;2023-02-18T06:40:31;2.08;;;1.00;;
18172;SDS011;9211;48.818;9.312;2023-02-18T06:42:57;1.42;;;1.00;;
18172;SDS011;9211;48.818;9.312;2023-02-18T06:45:24;1.48;;;1.17;;
18172;SDS011;9211;48.818;9.312;2023-02-18T06:47:53;1.73;;;1.00;;
18172;SDS011;9211;48.818;9.312;2023-02-18T06:50:20;2.20;;;1.00;;
18172;SDS011;9211;48.818;9.312;2023-02-18T06:52:47;1.67;;;1.17;;
18172;SDS011;9211;48.818;9.312;2023-02-18T06:55:14;1.75;;;1.10;;
18172;SDS011;9211;48.818;9.312;2023-02-18T06:57:41;1.80;;;1.10;;
18172;SDS011;9211;48.818;9.312;2023-02-18T07:00:08;2.35;;;1.10;;
18172;SDS011;9211;48.818;9.312;2023-02-18T07:02:35;2.00;;;1.10;;
18172;SDS011;9211;48.818;9.312;2023-02-18T07:05:04;2.15;;;1.23;;
18172;SDS011;9211;48.818;9.312;2023-02-18T07:07:31;2.53;;;1.30;;
18172;SDS011;9211;48.818;9.312;2023-02-18T07:09:58;1.80;;;1.17;;
18172;SDS011;9211;48.818;9.312;2023-02-18T07:12:25;1.50;;;1.15;;
18172;SDS011;9211;48.818;9.312;2023-02-18T07:14:52;2.60;;;1.17;;
18172;SDS011;9211;48.818;9.312;2023-02-18T07:17:19;1.75;;;1.15;;
18172;SDS011;9211;48.818;9.312;2023-02-18T07:19:46;1.70;;;1.13;;
18172;SDS011;9211;48.818;9.312;2023-02-18T07:22:14;1.92;;;1.20;;
18172;SDS011;9211;48.818;9.312;2023-02-18T07:24:42;1.92;;;1.20;;
18172;SDS011;9211;48.818;9.312;2023-02-18T07:27:09;1.92;;;1.38;;
18172;SDS011;9211;48.818;9.312;2023-02-18T07:29:35;2.25;;;1.27;;
18172;SDS011;9211;48.818;9.312;2023-02-18T07:32:03;2.72;;;1.50;;
18172;SDS011;9211;48.818;9.312;2023-02-18T07:34:30;4.03;;;1.83;;
18172;SDS011;9211;48.818;9.312;2023-02-18T07:36:57;2.67;;;1.35;;
18172;SDS011;9211;48.818;9.312;2023-02-18T07:39:25;3.38;;;1.38;;
18172;SDS011;9211;48.818;9.312;2023-02-18T07:41:52;2.50;;;1.30;;
18172;SDS011;9211;48.818;9.312;2023-02-18T07:44:22;1.70;;;1.20;;
18172;SDS011;9211;48.818;9.312;2023-02-18T07:46:51;1.52;;;1.10;;
18172;SDS011;9211;48.818;9.312;2023-02-18T07:49:18;2.75;;;1.02;;
18172;SDS011;9211;48.818;9.312;2023-02-18T07:51:45;2.80;;;1.30;;
18172;SDS011;9211;48.818;9.312;2023-02-18T07:54:13;1.70;;;1.30;;
18172;SDS011;9211;48.818;9.312;2023-02-18T07:56:41;4.53;;;1.45;;
18172;SDS011;9211;48.818;9.312;2023-02-18T07:59:08;2.92;;;1.40;;
18172;SDS011;9211;48.818;9.312;2023-02-18T08:01:35;3.15;;;1.30;;
18172;SDS011;9211;48.818;9.312;2023-02-18T08:04:08;3.50;;;1.50;;
18172;SDS011;9211;48.818;9.312;2023-02-18T08:06:36;2.70;;;1.38;;
18172;SDS011;9211;48.818;9.312;2023-02-18T08:09:05;4.72;;;1.40;;
18172;SDS011;9211;48.818;9.312;2023-02-18T08:11:33;2.63;;;1.50;;
18172;SDS011;9211;48.818;9.312;2023-02-18T08:14:01;3.88;;;1.63;;
18172;SDS011;9211;48.818;9.312;2023-02-18T08:16:28;2.70;;;1.40;;
18172;SDS011;9211;48.818;9.312;2023-02-18T08:18:55;2.90;;;1.40;;
18172;SDS011;9211;48.818;9.312;2023-02-18T08:21:24;2.60;;;1.42;;
18172;SDS011;9211;48.818;9.312;2023-02-18T08:23:51;2.17;;;1.40;;
18172;SDS011;9211;48.818;9.312;2023-02-18T08:26:19;1.80;;;1.30;;
18172;SDS011;9211;48.818;9.312;2023-02-18T08:28:46;2.72;;;1.42;;
18172;SDS011;9211;48.818;9.312;2023-02-18T08:31:19;2.03;;;1.40;;
18172;SDS011;9211;48.818;9.312;2023-02-18T08:33:47;3.15;;;1.60;;
18172;SDS011;9211;48.818;9.312;2023-02-18T08:36:15;5.20;;;1.53;;
18172;SDS011;9211;48.818;9.312;2023-02-18T08:38:42;3.78;;;1.50;;
18172;SDS011;9211;48.818;9.312;2023-02-18T08:41:09;5.10;;;1.52;;
18172;SDS011;9211;48.818;9.312;2023-02-18T08:43:38;3.67;;;1.30;;
18172;SDS011;9211;48.818;9.312;2023-02-18T08:46:05;3.22;;;1.42;;
18172;SDS011;9211;48.818;9.312;2023-02-18T08:48:34;2.53;;;1.20;;
18172;SDS011;9211;48.818;9.312;2023-02-18T08:51:09;3.55;;;1.40;;
18172;SDS011;9211;48.818;9.312;2023-02-18T08:53:37;5.38;;;1.50;;
18172;SDS011;9211;48.818;9.312;2023-02-18T08:56:05;4.57;;;1.48;;
18172;SDS011;9211;48.818;9.312;2023-02-18T08:58:33;3.53;;;1.20;;
18172;SDS011;9211;48.818;9.312;2023-02-18T09:01:01;1.70;;;1.20;;
18172;SDS011;9211;48.818;9.312;2023-02-18T09:03:29;3.90;;;1.30;;
18172;SDS011;9211;48.818;9.312;2023-02-18T09:05:57;3.87;;;1.17;;
18172;SDS011;9211;48.818;9.312;2023-02-18T09:08:25;3.75;;;1.23;;
18172;SDS011;9211;48.818;9.312;2023-02-18T09:10:55;3.38;;;1.13;;
18172;SDS011;9211;48.818;9.312;2023-02-18T09:13:23;5.40;;;1.05;;
18172;SDS011;9211;48.818;9.312;2023-02-18T09:15:54;3.13;;;0.90;;
18172;SDS011;9211;48.818;9.312;2023-02-18T09:18:23;5.45;;;1.10;;
18172;SDS011;9211;48.818;9.312;2023-02-18T09:20:50;4.28;;;1.05;;
18172;SDS011;9211;48.818;9.312;2023-02-18T09:23:18;1.77;;;1.00;;
18172;SDS011;9211;48.818;9.312;2023-02-18T09:25:45;2.35;;;1.15;;
18172;SDS011;9211;48.818;9.312;2023-02-18T09:28:12;2.10;;;1.00;;
18172;SDS011;9211;48.818;9.312;2023-02-18T09:30:39;2.90;;;1.17;;
18172;SDS011;9211;48.818;9.312;2023-02-18T09:33:06;2.22;;;1.17;;
18172;SDS011;9211;48.818;9.312;2023-02-18T09:35:35;3.83;;;1.08;;
18172;SDS011;9211;48.818;9.312;2023-02-18T09:38:04;2.17;;;1.08;;
18172;SDS011;9211;48.818;9.312;2023-02-18T09:40:33;3.60;;;1.10;;
18172;SDS011;9211;48.818;9.312;2023-02-18T09:43:02;2.30;;;1.00;;
18172;SDS011;9211;48.818;9.312;2023-02-18T09:45:30;4.40;;;1.05;;
18172;SDS011;9211;48.818;9.312;2023-02-18T09:47:57;2.63;;;0.90;;
18172;SDS011;9211;48.818;9.312;2023-02-18T09:50:27;2.30;;;0.93;;
18172;SDS011;9211;48.818;9.312;2023-02-18T09:52:57;2.65;;;1.05;;
18172;SDS011;9211;48.818;9.312;2023-02-18T09:55:26;2.08;;;1.00;;
18172;SDS011;9211;48.818;9.312;2023-02-18T09:57:58;4.55;;;1.00;;
18172;SDS011;9211;48.818;9.312;2023-02-18T10:00:29;1.23;;;0.77;;
18172;SDS011;9211;48.818;9.312;2023-02-18T10:03:00;4.20;;;0.82;;
18172;SDS011;9211;48.818;9.312;2023-02-18T10:05:30;3.72;;;1.10;;
18172;SDS011;9211;48.818;9.312;2023-02-18T10:08:00;1.27;;;0.90;;
18172;SDS011;9211;48.818;9.312;2023-02-18T10:10:40;3.58;;;1.20;;
18172;SDS011;9211;48.818;9.312;2023-02-18T10:13:12;1.43;;;0.90;;
18172;SDS011;9211;48.818;9.312;2023-02-18T10:15:41;2.00;;;0.95;;
18172;SDS011;9211;48.818;9.312;2023-02-18T10:18:13;1.77;;;1.00;;
18172;SDS011;9211;48.818;9.312;2023-02-18T10:20:48;1.40;;;0.90;;
18172;SDS011;9211;48.818;9.312;2023-02-18T10:23:17;1.80;;;0.98;;
18172;SDS011;9211;48.818;9.312;2023-02-18T10:25:46;2.35;;;1.08;;
18172;SDS011;9211;48.818;9.312;2023-02-18T10:28:16;1.40;;;1.00;;
18172;SDS011;9211;48.818;9.312;2023-02-18T10:30:49;3.45;;;0.80;;
18172;SDS011;9211;48.818;9.312;2023-02-18T10:33:26;1.63;;;1.00;;
18172;SDS011;9211;48.818;9.312;2023-02-18T10:35:59;1.50;;;0.80;;
18172;SDS011;9211;48.818;9.312;2023-02-18T10:38:39;1.17;;;0.77;;
18172;SDS011;9211;48.818;9.312;2023-02-18T10:41:18;1.37;;;0.90;;
18172;SDS011;9211;48.818;9.312;2023-02-18T10:43:54;2.00;;;1.00;;
18172;SDS011;9211;48.818;9.312;2023-02-18T10:46:33;1.85;;;0.90;;
18172;SDS011;9211;48.818;9.312;2023-02-18T10:49:14;1.73;;;0.85;;
18172;SDS011;9211;48.818;9.312;2023-02-18T10:52:00;1.65;;;0.82;;
18172;SDS011;9211;48.818;9.312;2023-02-18T10:54:47;3.07;;;1.10;;
18172;SDS011;9211;48.818;9.312;2023-02-18T10:57:16;1.30;;;0.90;;
18172;SDS011;9211;48.818;9.312;2023-02-18T10:59:53;3.90;;;1.00;;
18172;SDS011;9211;48.818;9.312;2023-02-18T11:02:23;3.95;;;1.00;;
18172;SDS011;9211;48.818;9.312;2023-02-18T11:04:53;2.70;;;1.02;;
18172;SDS011;9211;48.818;9.312;2023-02-18T11:07:22;1.97;;;0.80;;
18172;SDS011;9211;48.818;9.312;2023-02-18T11:09:54;6.28;;;0.90;;
18172;SDS011;9211;48.818;9.312;2023-02-18T11:12:23;2.00;;;0.80;;
18172;SDS011;9211;48.818;9.312;2023-02-18T11:15:04;2.57;;;0.97;;
18172;SDS011;9211;48.818;9.312;2023-02-18T11:17:41;1.25;;;0.80;;
18172;SDS011;9211;48.818;9.312;2023-02-18T11:20:19;2.40;;;1.15;;
18172;SDS011;9211;48.818;9.312;2023-02-18T11:22:49;2.10;;;0.90;;
18172;SDS011;9211;48.818;9.312;2023-02-18T11:25:20;2.00;;;0.80;;
18172;SDS011;9211;48.818;9.312;2023-02-18T11:27:49;1.73;;;0.90;;
18172;SDS011;9211;48.818;9.312;2023-02-18T11:30:20;1.42;;;0.85;;
18172;SDS011;9211;48.818;9.312;2023-02-18T11:32:52;1.15;;;0.75;;
18172;SDS011;9211;48.818;9.312;2023-02-18T11:35:22;1.35;;;0.85;;
18172;SDS011;9211;48.818;9.312;2023-02-18T11:37:52;1.52;;;0.82;;
18172;SDS011;9211;48.818;9.312;2023-02-18T11:40:24;2.05;;;0.80;;
18172;SDS011;9211;48.818;9.312;2023-02-18T11:43:00;1.95;;;1.10;;
18172;SDS011;9211;48.818;9.312;2023-02-18T11:45:34;2.35;;;0.70;;
18172;SDS011;9211;48.818;9.312;2023-02-18T11:48:02;1.92;;;0.80;;
18172;SDS011;9211;48.818;9.312;2023-02-18T11:50:33;1.70;;;0.77;;
18172;SDS011;9211;48.818;9.312;2023-02-18T11:53:00;1.27;;;0.80;;
18172;SDS011;9211;48.818;9.312;2023-02-18T11:55:52;1.27;;;0.80;;
18172;SDS011;9211;48.818;9.312;2023-02-18T11:58:21;2.70;;;0.90;;
18172;SDS011;9211;48.818;9.312;2023-02-18T12:00:49;1.08;;;0.73;;
18172;SDS011;9211;48.818;9.312;2023-02-18T12:03:21;2.30;;;1.00;;
18172;SDS011;9211;48.818;9.312;2023-02-18T12:05:56;2.40;;;0.93;;
18172;SDS011;9211;48.818;9.312;2023-02-18T12:08:26;3.85;;;0.80;;
18172;SDS011;9211;48.818;9.312;2023-02-18T12:10:55;1.42;;;0.80;;
18172;SDS011;9211;48.818;9.312;2023-02-18T12:13:27;3.30;;;1.00;;
18172;SDS011;9211;48.818;9.312;2023-02-18T12:16:03;2.30;;;1.10;;
18172;SDS011;9211;48.818;9.312;2023-02-18T12:18:45;2.42;;;0.90;;
18172;SDS011;9211;48.818;9.312;2023-02-18T12:21:35;2.20;;;0.80;;
18172;SDS011;9211;48.818;9.312;2023-02-18T12:24:12;1.50;;;0.90;;
18172;SDS011;9211;48.818;9.312;2023-02-18T12:26:54;1.25;;;1.00;;
18172;SDS011;9211;48.818;9.312;2023-02-18T12:29:35;1.85;;;0.98;;
18172;SDS011;9211;48.818;9.312;2023-02-18T12:32:29;1.25;;;0.90;;
18172;SDS011;9211;48.818;9.312;2023-02-18T12:35:15;3.80;;;1.10;;
18172;SDS011;9211;48.818;9.312;2023-02-18T12:37:59;1.75;;;1.10;;
18172;SDS011;9211;48.818;9.312;2023-02-18T12:40:39;1.65;;;1.10;;
18172;SDS011;9211;48.818;9.312;2023-02-18T12:43:21;2.08;;;0.90;;
18172;SDS011;9211;48.818;9.312;2023-02-18T12:46:07;2.05;;;1.08;;
18172;SDS011;9211;48.818;9.312;2023-02-18T12:48:56;2.55;;;1.30;;
18172;SDS011;9211;48.818;9.312;2023-02-18T12:51:36;2.80;;;1.10;;
18172;SDS011;9211;48.818;9.312;2023-02-18T12:54:31;3.47;;;0.95;;
18172;SDS011;9211;48.818;9.312;2023-02-18T12:57:19;3.75;;;1.80;;
18172;SDS011;9211;48.818;9.312;2023-02-18T13:06:11;2.13;;;1.40;;
18172;SDS011;9211;48.818;9.312;2023-02-18T13:08:56;1.90;;;1.30;;
18172;SDS011;9211;48.818;9.312;2023-02-18T13:11:32;3.47;;;1.55;;
18172;SDS011;9211;48.818;9.312;2023-02-18T13:14:07;2.22;;;1.40;;
18172;SDS011;9211;48.818;9.312;2023-02-18T13:16:38;3.67;;;1.40;;
18172;SDS011;9211;48.818;9.312;2023-02-18T13:19:10;3.00;;;1.40;;
18172;SDS011;9211;48.818;9.312;2023-02-18T13:21:45;1.73;;;1.30;;
18172;SDS011;9211;48.818;9.312;2023-02-18T13:24:16;2.50;;;1.40;;
18172;SDS011;9211;48.818;9.312;2023-02-18T13:26:51;4.53;;;1.60;;
18172;SDS011;9211;48.818;9.312;2023-02-18T13:29:25;2.45;;;1.42;;
18172;SDS011;9211;48.818;9.312;2023-02-18T13:31:59;1.75;;;1.20;;
18172;SDS011;9211;48.818;9.312;2023-02-18T13:34:35;2.95;;;1.52;;
18172;SDS011;9211;48.818;9.312;2023-02-18T13:37:09;4.30;;;1.70;;
18172;SDS011;9211;48.818;9.312;2023-02-18T13:39:45;2.10;;;1.30;;
18172;SDS011;9211;48.818;9.312;2023-02-18T13:42:24;2.58;;;1.50;;
18172;SDS011;9211;48.818;9.312;2023-02-18T13:45:04;2.53;;;1.42;;
18172;SDS011;9211;48.818;9.312;2023-02-18T13:47:46;2.42;;;1.35;;
18172;SDS011;9211;48.818;9.312;2023-02-18T13:50:15;3.28;;;1.50;;
18172;SDS011;9211;48.818;9.312;2023-02-18T13:52:56;2.97;;;1.45;;
18172;SDS011;9211;48.818;9.312;2023-02-18T13:55:38;2.10;;;1.40;;
18172;SDS011;9211;48.818;9.312;2023-02-18T13:58:10;2.47;;;1.48;;
18172;SDS011;9211;48.818;9.312;2023-02-18T14:00:48;3.05;;;1.48;;
18172;SDS011;9211;48.818;9.312;2023-02-18T14:03:29;2.35;;;1.55;;
18172;SDS011;9211;48.818;9.312;2023-02-18T14:06:12;2.80;;;1.40;;
18172;SDS011;9211;48.818;9.312;2023-02-18T14:08:41;4.57;;;1.57;;
18172;SDS011;9211;48.818;9.312;2023-02-18T14:11:30;4.23;;;1.67;;
18172;SDS011;9211;48.818;9.312;2023-02-18T14:17:12;3.47;;;1.50;;
18172;SDS011;9211;48.818;9.312;2023-02-18T14:19:55;4.72;;;2.00;;
18172;SDS011;9211;48.818;9.312;2023-02-18T14:22:42;3.20;;;1.70;;
18172;SDS011;9211;48.818;9.312;2023-02-18T14:25:20;2.78;;;1.40;;
18172;SDS011;9211;48.818;9.312;2023-02-18T14:27:52;3.50;;;1.50;;
18172;SDS011;9211;48.818;9.312;2023-02-18T14:30:23;2.47;;;1.33;;
18172;SDS011;9211;48.818;9.312;2023-02-18T14:32:55;3.42;;;1.50;;
18172;SDS011;9211;48.818;9.312;2023-02-18T14:35:26;1.92;;;1.30;;
18172;SDS011;9211;48.818;9.312;2023-02-18T14:38:21;2.75;;;1.40;;
18172;SDS011;9211;48.818;9.312;2023-02-18T14:41:13;2.47;;;1.40;;
18172;SDS011;9211;48.818;9.312;2023-02-18T14:44:03;2.50;;;1.40;;
18172;SDS011;9211;48.818;9.312;2023-02-18T14:46:49;2.50;;;1.48;;
18172;SDS011;9211;48.818;9.312;2023-02-18T14:49:31;2.60;;;1.45;;
18172;SDS011;9211;48.818;9.312;2023-02-18T14:52:04;3.08;;;1.48;;
18172;SDS011;9211;48.818;9.312;2023-02-18T14:54:37;2.08;;;1.30;;
18172;SDS011;9211;48.818;9.312;2023-02-18T14:57:08;3.63;;;1.60;;
18172;SDS011;9211;48.818;9.312;2023-02-18T14:59:41;4.07;;;1.40;;
18172;SDS011;9211;48.818;9.312;2023-02-18T15:02:14;2.50;;;1.20;;
18172;SDS011;9211;48.818;9.312;2023-02-18T15:04:44;2.90;;;1.40;;
18172;SDS011;9211;48.818;9.312;2023-02-18T15:07:11;2.78;;;1.40;;
18172;SDS011;9211;48.818;9.312;2023-02-18T15:09:44;3.45;;;1.35;;
18172;SDS011;9211;48.818;9.312;2023-02-18T15:12:15;1.95;;;1.25;;
18172;SDS011;9211;48.818;9.312;2023-02-18T15:14:45;1.95;;;1.40;;
18172;SDS011;9211;48.818;9.312;2023-02-18T15:17:16;2.58;;;1.50;;
18172;SDS011;9211;48.818;9.312;2023-02-18T15:19:46;2.45;;;1.40;;
18172;SDS011;9211;48.818;9.312;2023-02-18T15:22:17;2.53;;;1.60;;
18172;SDS011;9211;48.818;9.312;2023-02-18T15:24:45;2.58;;;1.42;;
18172;SDS011;9211;48.818;9.312;2023-02-18T15:27:16;2.20;;;1.45;;
18172;SDS011;9211;48.818;9.312;2023-02-18T15:29:47;2.90;;;1.50;;
18172;SDS011;9211;48.818;9.312;2023-02-18T15:32:17;2.33;;;1.58;;
18172;SDS011;9211;48.818;9.312;2023-02-18T15:34:48;2.72;;;1.45;;
18172;SDS011;9211;48.818;9.312;2023-02-18T15:37:16;2.10;;;1.50;;
18172;SDS011;9211;48.818;9.312;2023-02-18T15:39:44;3.40;;;1.58;;
18172;SDS011;9211;48.818;9.312;2023-02-18T15:42:16;3.00;;;1.50;;
18172;SDS011;9211;48.818;9.312;2023-02-18T15:44:49;3.63;;;1.40;;
18172;SDS011;9211;48.818;9.312;2023-02-18T15:47:18;2.88;;;1.60;;